createdAt,value
2023-02-03T00:00:15.024Z,3.22
2023-02-03T00:05:18.786Z,3.42
2023-02-03T00:10:24.240Z,3.75
2023-02-03T00:15:28.315Z,3.17
2023-02-03T00:20:32.128Z,2.83
2023-02-03T00:25:37.854Z,2.62
2023-02-03T00:30:41.649Z,3.40
2023-02-03T00:35:45.369Z,2.53
2023-02-03T00:40:55.051Z,2.85
2023-02-03T00:45:59.857Z,2.97
2023-02-03T00:51:03.638Z,2.58
2023-02-03T00:56:12.672Z,3.25
2023-02-03T01:01:16.602Z,2.83
2023-02-03T01:06:21.884Z,2.80
2023-02-03T01:11:28.644Z,2.83
2023-02-03T01:16:36.352Z,2.47
2023-02-03T01:21:40.210Z,2.37
2023-02-03T01:26:45.281Z,2.90
2023-02-03T01:31:49.260Z,3.50
2023-02-03T01:36:53.326Z,2.50
2023-02-03T01:41:59.793Z,3.50
2023-02-03T01:47:04.884Z,2.20
2023-02-03T01:52:08.712Z,1.85
2023-02-03T01:57:18.576Z,2.15
2023-02-03T02:02:22.832Z,2.25
2023-02-03T02:07:27.578Z,2.22
2023-02-03T02:12:32.682Z,1.80
2023-02-03T02:17:54.245Z,2.53
2023-02-03T02:23:23.837Z,2.50
2023-02-03T02:28:47.666Z,1.62
2023-02-03T02:34:02.596Z,2.47
2023-02-03T02:39:13.908Z,2.42
2023-02-03T02:44:24.098Z,5.30
2023-02-03T02:49:34.102Z,2.35
2023-02-03T02:54:42.475Z,2.22
2023-02-03T02:59:46.544Z,2.78
2023-02-03T03:04:52.594Z,1.95
2023-02-03T03:10:01.243Z,2.60
2023-02-03T03:15:09.311Z,1.62
2023-02-03T03:20:21.281Z,2.78
2023-02-03T03:25:31.010Z,2.40
2023-02-03T03:30:37.643Z,2.25
2023-02-03T03:35:49.309Z,2.25
2023-02-03T03:41:00.201Z,1.90
2023-02-03T03:46:11.168Z,1.98
2023-02-03T03:51:22.979Z,1.50
2023-02-03T03:56:29.799Z,1.83
2023-02-03T04:01:33.851Z,1.42
2023-02-03T04:06:40.196Z,1.33
2023-02-03T04:12:01.515Z,1.90
2023-02-03T04:17:05.856Z,1.80
2023-02-03T04:22:10.902Z,1.35
2023-02-03T04:27:14.733Z,1.50
2023-02-03T04:32:18.480Z,2.15
2023-02-03T04:37:24.093Z,1.35
2023-02-03T04:42:28.096Z,1.08
2023-02-03T04:47:31.801Z,1.83
2023-02-03T04:52:36.853Z,1.60
2023-02-03T04:57:40.568Z,1.67
2023-02-03T05:02:44.276Z,1.60
2023-02-03T05:07:49.417Z,1.15
2023-02-03T05:12:53.305Z,1.40
2023-02-03T05:17:57.266Z,2.12
2023-02-03T05:23:02.344Z,1.62
2023-02-03T05:28:06.271Z,1.37
2023-02-03T05:33:10.071Z,1.55
2023-02-03T05:38:15.483Z,2.22
2023-02-03T05:43:19.227Z,1.30
2023-02-03T05:48:22.955Z,1.77
2023-02-03T05:53:28.264Z,1.77
2023-02-03T05:58:32.015Z,1.80
2023-02-03T06:03:35.733Z,1.83
2023-02-03T06:08:40.830Z,1.40
2023-02-03T06:13:44.698Z,1.30
2023-02-03T06:18:48.386Z,1.40
2023-02-03T06:23:53.582Z,1.60
2023-02-03T06:28:57.336Z,1.73
2023-02-03T06:34:02.595Z,1.67
2023-02-03T06:39:07.718Z,2.17
2023-02-03T06:44:11.406Z,1.60
2023-02-03T06:49:15.121Z,1.77
2023-02-03T06:54:20.233Z,2.05
2023-02-03T06:59:23.945Z,1.98
2023-02-03T07:04:28.423Z,1.73
2023-02-03T07:09:33.517Z,1.75
2023-02-03T07:14:39.313Z,2.08
2023-02-03T07:19:45.106Z,2.90
2023-02-03T07:24:51.326Z,2.37
2023-02-03T07:29:55.042Z,2.15
2023-02-03T07:34:58.749Z,1.55
2023-02-03T07:40:03.964Z,3.47
2023-02-03T07:45:08.717Z,2.30
2023-02-03T07:50:13.271Z,2.30
2023-02-03T07:55:18.496Z,2.65
2023-02-03T08:00:22.769Z,2.62
2023-02-03T08:05:26.485Z,2.22
2023-02-03T08:10:31.660Z,2.37
2023-02-03T08:15:35.469Z,2.10
2023-02-03T08:20:39.247Z,2.75
2023-02-03T08:25:44.536Z,2.42
2023-02-03T08:30:48.320Z,2.65
2023-02-03T08:35:52.271Z,2.37
2023-02-03T08:40:57.429Z,2.28
2023-02-03T08:46:04.245Z,2.35
2023-02-03T08:51:12.192Z,2.15
2023-02-03T08:56:17.258Z,2.45
2023-02-03T09:01:21.266Z,3.42
2023-02-03T09:06:26.278Z,2.97
2023-02-03T09:11:31.531Z,2.87
2023-02-03T09:16:35.527Z,2.75
2023-02-03T09:21:41.868Z,2.42
2023-02-03T09:26:53.276Z,3.33
2023-02-03T09:31:57.031Z,2.30
2023-02-03T09:37:00.856Z,3.17
2023-02-03T09:42:25.324Z,2.80
2023-02-03T09:47:33.583Z,2.03
2023-02-03T09:57:51.443Z,1.90
2023-02-03T10:02:59.712Z,2.83
2023-02-03T10:08:15.396Z,3.62
2023-02-03T10:13:30.081Z,2.30
2023-02-03T10:18:41.418Z,3.10
2023-02-03T10:23:46.604Z,2.62
2023-02-03T10:28:56.763Z,2.55
2023-02-03T10:34:02.296Z,2.12
2023-02-03T10:39:18.562Z,3.15
2023-02-03T10:44:32.342Z,2.55
2023-02-03T10:49:36.328Z,3.17
2023-02-03T10:54:40.095Z,2.12
2023-02-03T10:59:47.972Z,1.95
2023-02-03T11:05:09.952Z,2.83
2023-02-03T11:10:36.079Z,2.90
2023-02-03T11:15:45.629Z,2.33
2023-02-03T11:20:49.473Z,2.67
2023-02-03T11:25:53.519Z,2.45
2023-02-03T11:31:01.709Z,2.12
2023-02-03T11:36:05.956Z,2.08
2023-02-03T11:41:17.338Z,2.20
2023-02-03T11:46:23.426Z,2.80
2023-02-03T11:51:41.140Z,2.00
2023-02-03T11:57:03.684Z,2.40
2023-02-03T12:02:43.958Z,2.25
2023-02-03T12:08:10.729Z,2.62
2023-02-03T12:13:33.595Z,2.42
2023-02-03T12:18:53.689Z,2.10
2023-02-03T12:24:04.561Z,1.70
2023-02-03T12:29:14.493Z,2.78
2023-02-03T12:34:26.072Z,2.78
2023-02-03T12:39:32.767Z,3.85
2023-02-03T12:44:44.384Z,3.47
2023-02-03T12:49:54.708Z,2.35
2023-02-03T12:55:08.257Z,3.25
2023-02-03T13:00:20.136Z,2.95
2023-02-03T13:05:31.378Z,3.67
2023-02-03T13:10:40.809Z,2.83
2023-02-03T13:15:48.929Z,3.58
2023-02-03T13:20:54.510Z,4.87
2023-02-03T13:26:23.056Z,3.08
2023-02-03T13:31:39.526Z,3.00
2023-02-03T13:37:13.505Z,2.80
2023-02-03T13:42:24.622Z,2.58
2023-02-03T13:47:30.256Z,2.75
2023-02-03T13:52:39.714Z,3.33
2023-02-03T13:57:43.551Z,3.10
2023-02-03T14:02:54.596Z,2.60
2023-02-03T14:07:59.732Z,3.42
2023-02-03T14:13:04.381Z,2.62
2023-02-03T14:18:33.053Z,2.78
2023-02-03T14:23:45.381Z,2.58
2023-02-03T14:28:53.699Z,3.53
2023-02-03T14:34:06.142Z,2.75
2023-02-03T14:39:58.701Z,3.35
2023-02-03T14:45:14.715Z,3.55
2023-02-03T14:50:29.866Z,3.47
2023-02-03T14:55:50.313Z,4.25
2023-02-03T15:00:55.345Z,5.55
2023-02-03T15:06:02.496Z,5.72
2023-02-03T15:11:35.457Z,2.90
2023-02-03T15:16:39.227Z,3.05
2023-02-03T15:21:43.337Z,2.90
2023-02-03T15:26:50.746Z,3.15
2023-02-03T15:32:01.032Z,6.57
2023-02-03T15:37:09.575Z,4.15
2023-02-03T15:42:22.715Z,4.72
2023-02-03T15:47:33.840Z,4.55
2023-02-03T15:52:43.514Z,3.25
2023-02-03T15:57:51.019Z,3.55
2023-02-03T16:02:58.059Z,3.30
2023-02-03T16:08:28.538Z,6.10
2023-02-03T16:13:35.859Z,4.70
2023-02-03T16:18:39.638Z,4.93
2023-02-03T16:23:50.749Z,3.83
2023-02-03T16:29:28.953Z,4.43
2023-02-03T16:40:11.182Z,7.53
2023-02-03T16:45:35.906Z,5.65
2023-02-03T16:50:52.964Z,5.50
2023-02-03T16:55:58.912Z,5.00
2023-02-03T17:01:06.110Z,4.82
2023-02-03T17:06:12.669Z,8.63
2023-02-03T17:11:18.359Z,5.50
2023-02-03T17:16:26.705Z,5.00
2023-02-03T17:21:31.100Z,5.60
2023-02-03T17:26:35.119Z,5.75
2023-02-03T17:31:40.249Z,7.80
2023-02-03T17:36:44.055Z,6.22
2023-02-03T17:57:53.592Z,6.53
2023-02-03T18:02:58.860Z,7.22
2023-02-03T18:08:09.059Z,7.15
2023-02-03T18:13:23.369Z,7.85
2023-02-03T18:18:29.072Z,9.55
2023-02-03T18:23:33.389Z,9.80
2023-02-03T18:28:38.031Z,9.85
2023-02-03T18:33:44.670Z,7.82
2023-02-03T18:38:49.061Z,7.00
2023-02-03T18:43:53.201Z,6.45
2023-02-03T18:48:58.641Z,9.02
2023-02-03T18:54:03.462Z,9.75
2023-02-03T18:59:09.472Z,8.75
2023-02-03T19:04:15.058Z,6.37
2023-02-03T19:09:20.598Z,6.07
2023-02-03T19:14:24.721Z,6.28
2023-02-03T19:19:29.866Z,5.68
2023-02-03T19:24:33.570Z,4.93
2023-02-03T19:29:38.954Z,5.30
2023-02-03T19:34:44.159Z,5.35
2023-02-03T19:39:50.404Z,5.28
2023-02-03T19:44:54.162Z,9.70
2023-02-03T19:49:59.338Z,6.85
2023-02-03T19:55:03.073Z,7.18
2023-02-03T20:00:08.495Z,6.45
2023-02-03T20:05:18.337Z,8.75
2023-02-03T20:10:22.083Z,7.28
2023-02-03T20:15:25.892Z,6.82
2023-02-03T20:20:31.275Z,7.10
2023-02-03T20:25:35.286Z,6.20
2023-02-03T20:30:40.060Z,7.18
2023-02-03T20:35:45.291Z,6.25
2023-02-03T20:40:49.005Z,5.57
2023-02-03T20:45:55.848Z,4.82
2023-02-03T20:51:01.158Z,8.23
2023-02-03T20:56:12.650Z,7.15
2023-02-03T21:01:18.996Z,8.25
2023-02-03T21:06:24.857Z,8.15
2023-02-03T21:11:30.808Z,6.40
2023-02-03T21:16:39.380Z,6.87
2023-02-03T21:21:46.798Z,6.85
2023-02-03T21:26:50.689Z,6.93
2023-02-03T21:31:55.760Z,5.82
2023-02-03T21:37:08.975Z,4.93
2023-02-03T21:42:40.938Z,5.15
2023-02-03T21:47:46.684Z,6.10
2023-02-03T21:52:51.744Z,5.45
2023-02-03T21:57:55.763Z,6.25
2023-02-03T22:03:01.222Z,4.72
2023-02-03T22:08:14.498Z,6.37
2023-02-03T22:13:20.087Z,5.78
2023-02-03T22:18:24.353Z,6.15
2023-02-03T22:23:29.416Z,5.85
2023-02-03T22:28:33.144Z,5.07
2023-02-03T22:33:37.125Z,4.87
2023-02-03T22:38:42.966Z,5.75
2023-02-03T22:43:46.636Z,5.95
2023-02-03T22:48:50.349Z,6.10
2023-02-03T22:53:55.448Z,4.25
2023-02-03T22:58:59.357Z,6.15
2023-02-03T23:04:03.134Z,5.53
2023-02-03T23:09:08.300Z,4.90
2023-02-03T23:14:12.203Z,4.70
2023-02-03T23:19:16.397Z,4.72
2023-02-03T23:24:21.478Z,4.93
2023-02-03T23:29:25.332Z,5.47
2023-02-03T23:34:46.689Z,6.00
2023-02-03T23:39:51.824Z,8.55
2023-02-03T23:44:55.943Z,8.80
2023-02-03T23:49:59.692Z,6.07
2023-02-03T23:55:09.394Z,5.62
